createdAt,value
2022-08-31T00:01:29.278Z,64.47
2022-08-31T00:04:14.082Z,65.13
2022-08-31T00:06:58.862Z,64.18
2022-08-31T00:09:43.587Z,63.77
2022-08-31T00:12:28.534Z,63.94
2022-08-31T00:15:13.221Z,64.13
2022-08-31T00:17:58.040Z,65.36
2022-08-31T00:20:42.778Z,64.87
2022-08-31T00:23:27.447Z,64.40
2022-08-31T00:26:12.246Z,64.06
2022-08-31T00:28:57.184Z,64.47
2022-08-31T00:31:41.852Z,63.26
2022-08-31T00:34:27.155Z,63.96
2022-08-31T00:37:11.859Z,63.40
2022-08-31T00:39:56.602Z,64.03
2022-08-31T00:42:41.273Z,64.12
2022-08-31T00:45:26.019Z,62.88
2022-08-31T00:48:10.855Z,64.45
2022-08-31T00:50:55.563Z,63.84
2022-08-31T00:53:40.399Z,63.55
2022-08-31T00:56:25.182Z,64.10
2022-08-31T00:59:10.069Z,63.44
2022-08-31T01:01:54.965Z,64.56
2022-08-31T01:04:40.128Z,64.67
2022-08-31T01:07:25.029Z,65.58
2022-08-31T01:10:09.798Z,65.28
2022-08-31T01:12:54.722Z,65.64
2022-08-31T01:15:39.383Z,65.67
2022-08-31T01:18:24.200Z,65.22
2022-08-31T01:21:08.921Z,66.54
2022-08-31T01:23:53.608Z,66.28
2022-08-31T01:26:38.406Z,65.86
2022-08-31T01:29:23.220Z,66.35
2022-08-31T01:32:08.287Z,66.74
2022-08-31T01:34:53.364Z,66.31
2022-08-31T01:37:38.205Z,66.50
2022-08-31T01:40:22.917Z,67.08
2022-08-31T01:43:07.818Z,66.92
2022-08-31T01:45:52.525Z,66.30
2022-08-31T01:48:37.470Z,65.52
2022-08-31T01:51:26.688Z,63.99
2022-08-31T01:54:11.378Z,66.70
2022-08-31T01:56:56.223Z,67.15
2022-08-31T01:59:41.086Z,68.17
2022-08-31T02:02:26.066Z,68.43
2022-08-31T02:05:10.670Z,67.21
2022-08-31T02:07:55.504Z,67.84
2022-08-31T02:10:40.375Z,68.14
2022-08-31T02:13:25.169Z,68.27
2022-08-31T02:16:10.044Z,68.42
2022-08-31T02:18:55.288Z,67.88
2022-08-31T02:21:40.040Z,68.12
2022-08-31T02:24:24.760Z,67.05
2022-08-31T02:27:09.765Z,66.70
2022-08-31T02:29:54.988Z,66.55
2022-08-31T02:32:39.815Z,66.19
2022-08-31T02:35:24.588Z,66.05
2022-08-31T02:38:09.283Z,66.19
2022-08-31T02:40:54.102Z,66.77
2022-08-31T02:43:38.934Z,66.69
2022-08-31T02:46:23.786Z,66.52
2022-08-31T02:49:09.028Z,66.63
2022-08-31T02:51:53.993Z,66.20
2022-08-31T02:54:38.607Z,64.92
2022-08-31T02:57:23.385Z,64.71
2022-08-31T03:00:07.975Z,65.00
2022-08-31T03:02:52.872Z,64.68
2022-08-31T03:05:38.252Z,65.56
2022-08-31T03:08:23.014Z,65.58
2022-08-31T03:11:07.956Z,66.18
2022-08-31T03:13:57.780Z,66.18
2022-08-31T03:16:43.427Z,65.35
2022-08-31T03:19:28.340Z,66.29
2022-08-31T03:22:13.005Z,65.78
2022-08-31T03:24:57.896Z,65.58
2022-08-31T03:27:42.550Z,66.32
2022-08-31T03:30:27.682Z,67.21
2022-08-31T03:33:14.821Z,66.46
2022-08-31T03:36:00.041Z,66.28
2022-08-31T03:38:44.914Z,66.10
2022-08-31T03:41:29.786Z,66.69
2022-08-31T03:44:14.623Z,66.53
2022-08-31T03:46:59.496Z,66.95
2022-08-31T03:49:44.238Z,67.37
2022-08-31T03:52:28.957Z,68.12
2022-08-31T03:55:13.790Z,69.19
2022-08-31T03:57:58.735Z,68.11
2022-08-31T04:00:43.499Z,67.33
2022-08-31T04:03:28.353Z,67.66
2022-08-31T04:06:13.124Z,67.19
2022-08-31T04:08:57.799Z,68.03
2022-08-31T04:11:44.911Z,68.30
2022-08-31T04:14:30.853Z,67.70
2022-08-31T04:17:15.844Z,67.88
2022-08-31T04:20:00.664Z,67.55
2022-08-31T04:22:45.561Z,68.08
2022-08-31T04:25:30.232Z,67.63
2022-08-31T04:28:14.974Z,68.06
2022-08-31T04:30:59.799Z,68.31
2022-08-31T04:33:44.760Z,68.61
2022-08-31T04:36:29.561Z,67.84
2022-08-31T04:39:14.347Z,67.20
2022-08-31T04:41:59.284Z,66.80
2022-08-31T04:44:44.123Z,67.16
2022-08-31T04:47:29.064Z,68.06
2022-08-31T04:50:13.891Z,67.11
2022-08-31T04:53:03.695Z,67.26
2022-08-31T04:55:49.206Z,67.63
2022-08-31T04:58:34.005Z,66.94
2022-08-31T05:01:18.887Z,67.63
2022-08-31T05:04:04.132Z,68.43
2022-08-31T05:06:48.914Z,68.27
2022-08-31T05:09:33.557Z,69.04
2022-08-31T05:12:18.504Z,69.41
2022-08-31T05:15:03.175Z,69.48
2022-08-31T05:17:48.054Z,69.20
2022-08-31T05:20:33.047Z,69.09
2022-08-31T05:23:17.947Z,69.50
2022-08-31T05:26:03.107Z,69.12
2022-08-31T05:28:47.815Z,69.38
2022-08-31T05:31:32.936Z,68.51
2022-08-31T05:34:18.173Z,68.05
2022-08-31T05:37:03.011Z,67.90
2022-08-31T05:39:47.821Z,67.34
2022-08-31T05:42:32.557Z,67.78
2022-08-31T05:45:17.289Z,68.07
2022-08-31T05:48:01.988Z,67.78
2022-08-31T05:50:46.781Z,67.80
2022-08-31T05:53:32.434Z,67.69
2022-08-31T05:56:19.071Z,67.63
2022-08-31T05:59:03.985Z,68.78
2022-08-31T06:01:48.770Z,69.15
2022-08-31T06:04:33.980Z,69.69
2022-08-31T06:07:18.872Z,70.18
2022-08-31T06:10:03.883Z,70.43
2022-08-31T06:12:48.527Z,70.57
2022-08-31T06:15:33.386Z,70.36
2022-08-31T06:18:20.674Z,70.92
2022-08-31T06:21:05.437Z,70.67
2022-08-31T06:23:50.321Z,70.88
2022-08-31T06:26:35.018Z,70.62
2022-08-31T06:29:19.880Z,70.21
2022-08-31T06:32:04.779Z,71.54
2022-08-31T06:34:49.630Z,70.95
2022-08-31T06:37:34.492Z,70.22
2022-08-31T06:40:19.429Z,69.93
2022-08-31T06:43:04.472Z,69.63
2022-08-31T06:45:49.141Z,69.86
2022-08-31T06:48:33.927Z,68.91
2022-08-31T06:51:18.554Z,68.28
2022-08-31T06:54:21.379Z,67.29
2022-08-31T06:57:08.053Z,67.00
2022-08-31T06:59:52.815Z,66.98
2022-08-31T07:02:37.753Z,67.07
2022-08-31T07:05:24.737Z,66.53
2022-08-31T07:08:09.633Z,66.00
2022-08-31T07:10:54.317Z,65.42
2022-08-31T07:13:39.193Z,65.05
2022-08-31T07:16:23.994Z,64.75
2022-08-31T07:19:09.206Z,65.47
2022-08-31T07:21:54.062Z,65.21
2022-08-31T07:24:38.948Z,63.74
2022-08-31T07:27:23.732Z,62.16
2022-08-31T07:30:08.415Z,60.88
2022-08-31T07:32:56.454Z,60.63
2022-08-31T07:35:41.455Z,60.12
2022-08-31T07:38:26.081Z,60.74
2022-08-31T07:41:10.845Z,60.57
2022-08-31T07:43:56.123Z,60.88
2022-08-31T07:46:41.948Z,62.84
2022-08-31T07:49:27.653Z,62.18
2022-08-31T07:52:12.413Z,61.20
2022-08-31T07:54:57.176Z,60.34
2022-08-31T07:57:41.863Z,60.36
2022-08-31T08:00:26.555Z,61.42
2022-08-31T08:03:11.338Z,61.92
2022-08-31T08:05:56.637Z,63.10
2022-08-31T08:08:41.274Z,66.49
2022-08-31T08:11:25.973Z,67.27
2022-08-31T08:14:10.591Z,67.62
2022-08-31T08:16:55.283Z,67.21
2022-08-31T08:19:39.996Z,67.32
2022-08-31T08:22:48.361Z,67.96
2022-08-31T08:25:29.687Z,67.34
2022-08-31T08:28:37.658Z,63.85
2022-08-31T08:31:20.711Z,63.90
2022-08-31T08:34:05.837Z,62.23
2022-08-31T08:36:50.465Z,63.31
2022-08-31T08:39:35.304Z,63.36
2022-08-31T08:42:20.007Z,64.48
2022-08-31T08:45:04.844Z,65.32
2022-08-31T08:47:49.684Z,64.12
2022-08-31T08:50:34.341Z,64.37
2022-08-31T08:53:19.227Z,65.39
2022-08-31T08:56:23.200Z,63.59
2022-08-31T08:59:12.142Z,64.54
2022-08-31T09:01:58.722Z,64.41
2022-08-31T09:04:43.897Z,65.06
2022-08-31T09:07:28.724Z,65.19
2022-08-31T09:10:13.426Z,66.16
2022-08-31T09:12:59.694Z,66.28
2022-08-31T09:15:44.600Z,67.34
2022-08-31T09:18:29.269Z,65.62
2022-08-31T09:21:14.143Z,65.58
2022-08-31T09:23:58.830Z,63.42
2022-08-31T09:26:43.578Z,62.96
2022-08-31T09:29:28.296Z,65.34
2022-08-31T09:32:13.012Z,65.09
2022-08-31T09:34:57.907Z,61.29
2022-08-31T09:37:42.734Z,60.99
2022-08-31T09:40:27.783Z,61.01
2022-08-31T09:43:13.930Z,60.86
2022-08-31T09:46:03.114Z,61.26
2022-08-31T09:48:48.249Z,63.33
2022-08-31T09:51:32.984Z,62.65
2022-08-31T09:54:17.733Z,60.41
2022-08-31T09:57:02.606Z,58.22
2022-08-31T09:59:47.347Z,57.25
2022-08-31T10:02:32.281Z,57.69
2022-08-31T10:05:17.029Z,56.71
2022-08-31T10:08:02.285Z,56.24
2022-08-31T10:10:47.095Z,56.84
2022-08-31T10:13:32.031Z,55.51
2022-08-31T10:16:16.789Z,55.53
2022-08-31T10:19:02.018Z,54.05
2022-08-31T10:21:46.694Z,54.83
2022-08-31T10:24:31.554Z,53.57
2022-08-31T10:27:16.224Z,54.33
2022-08-31T10:30:01.074Z,54.21
2022-08-31T10:32:45.667Z,53.15
2022-08-31T10:35:30.398Z,51.10
2022-08-31T10:38:19.791Z,51.64
2022-08-31T10:41:04.790Z,51.96
2022-08-31T10:43:50.643Z,54.07
2022-08-31T10:46:35.713Z,52.99
2022-08-31T10:49:20.762Z,54.40
2022-08-31T10:52:05.637Z,54.00
2022-08-31T10:54:50.409Z,55.29
2022-08-31T10:57:36.231Z,53.77
2022-08-31T11:00:20.872Z,53.38
2022-08-31T11:03:05.624Z,53.89
2022-08-31T11:05:51.156Z,51.12
2022-08-31T11:08:36.248Z,50.62
2022-08-31T11:11:21.026Z,48.76
2022-08-31T11:14:05.801Z,49.49
2022-08-31T11:16:51.169Z,49.23
2022-08-31T11:19:35.774Z,49.22
2022-08-31T11:22:20.545Z,48.81
2022-08-31T11:25:05.317Z,48.29
2022-08-31T11:27:50.076Z,47.82
2022-08-31T11:30:37.572Z,48.75
2022-08-31T11:33:26.179Z,49.27
2022-08-31T11:36:10.910Z,48.65
2022-08-31T11:38:55.691Z,48.46
2022-08-31T11:41:40.368Z,48.80
2022-08-31T11:44:25.093Z,48.70
2022-08-31T11:47:13.628Z,46.51
2022-08-31T11:49:58.951Z,46.87
2022-08-31T11:52:43.818Z,46.60
2022-08-31T11:55:28.350Z,47.23
2022-08-31T11:58:13.241Z,47.08
2022-08-31T12:01:05.329Z,46.93
2022-08-31T12:03:49.910Z,46.58
2022-08-31T12:06:34.956Z,47.47
2022-08-31T12:09:19.638Z,47.42
2022-08-31T12:12:04.431Z,47.71
2022-08-31T12:14:49.163Z,47.29
2022-08-31T12:17:34.093Z,46.80
2022-08-31T12:20:18.850Z,46.92
2022-08-31T12:23:03.678Z,46.07
2022-08-31T12:25:48.329Z,45.16
2022-08-31T12:28:33.162Z,45.70
2022-08-31T12:31:18.077Z,44.61
2022-08-31T12:34:03.281Z,44.07
2022-08-31T12:36:49.903Z,42.81
2022-08-31T12:39:35.802Z,42.51
2022-08-31T12:42:20.558Z,43.94
2022-08-31T12:45:05.266Z,44.17
2022-08-31T12:47:49.875Z,43.48
2022-08-31T12:50:35.660Z,43.72
2022-08-31T12:53:20.319Z,44.65
2022-08-31T12:56:05.461Z,44.06
2022-08-31T12:58:50.232Z,43.98
2022-08-31T13:01:35.100Z,43.51
2022-08-31T13:04:20.330Z,43.51
2022-08-31T13:07:04.993Z,42.92
2022-08-31T13:09:49.953Z,42.92
2022-08-31T13:12:34.726Z,42.19
2022-08-31T13:15:19.414Z,40.93
2022-08-31T13:18:04.124Z,41.07
2022-08-31T13:20:48.919Z,39.18
2022-08-31T13:23:34.449Z,38.64
2022-08-31T13:26:19.543Z,38.19
2022-08-31T13:29:04.263Z,38.55
2022-08-31T13:31:48.967Z,38.39
2022-08-31T13:34:33.822Z,37.46
2022-08-31T13:37:18.486Z,37.31
2022-08-31T13:40:03.458Z,37.58
2022-08-31T13:42:50.805Z,36.71
2022-08-31T13:45:41.785Z,37.68
2022-08-31T13:48:26.543Z,38.28
2022-08-31T13:51:11.297Z,38.05
2022-08-31T13:53:55.941Z,36.66
2022-08-31T13:56:41.771Z,36.56
2022-08-31T13:59:26.490Z,36.95
2022-08-31T14:02:12.721Z,36.32
2022-08-31T14:04:57.492Z,36.41
2022-08-31T14:07:42.817Z,36.44
2022-08-31T14:10:27.723Z,36.23
2022-08-31T14:13:12.550Z,35.60
2022-08-31T14:16:02.440Z,36.62
2022-08-31T14:18:47.156Z,36.89
2022-08-31T14:21:31.838Z,37.48
2022-08-31T14:24:16.597Z,38.14
2022-08-31T14:27:01.260Z,37.81
2022-08-31T14:29:46.155Z,36.76
2022-08-31T14:32:31.394Z,36.86
2022-08-31T14:35:16.187Z,36.06
2022-08-31T14:38:00.837Z,36.63
2022-08-31T14:40:45.565Z,36.23
2022-08-31T14:43:30.709Z,36.09
2022-08-31T14:46:15.327Z,35.92
2022-08-31T14:49:00.529Z,35.84
2022-08-31T14:51:45.425Z,35.63
2022-08-31T14:54:30.553Z,36.22
2022-08-31T14:57:15.190Z,35.81
2022-08-31T14:59:59.999Z,36.17
2022-08-31T15:02:44.721Z,36.38
2022-08-31T15:05:30.002Z,36.85
2022-08-31T15:08:14.726Z,36.59
2022-08-31T15:11:03.057Z,36.85
2022-08-31T15:13:48.090Z,34.63
2022-08-31T15:16:33.187Z,33.41
2022-08-31T15:19:18.595Z,34.63
2022-08-31T15:22:03.445Z,35.01
2022-08-31T15:24:48.750Z,35.04
2022-08-31T15:27:33.595Z,33.49
2022-08-31T15:30:19.796Z,33.39
2022-08-31T15:33:04.865Z,32.35
2022-08-31T15:35:49.574Z,32.49
2022-08-31T15:38:34.452Z,31.34
2022-08-31T15:41:19.064Z,31.49
2022-08-31T15:44:03.775Z,30.19
2022-08-31T15:46:48.563Z,30.47
2022-08-31T15:49:33.407Z,30.32
2022-08-31T15:52:18.140Z,30.30
2022-08-31T15:55:02.969Z,30.20
2022-08-31T15:57:47.936Z,30.43
2022-08-31T16:00:32.801Z,30.95
2022-08-31T16:03:17.905Z,31.20
2022-08-31T16:06:03.248Z,31.68
2022-08-31T16:08:48.501Z,31.90
2022-08-31T16:11:33.402Z,31.90
2022-08-31T16:14:22.109Z,32.21
2022-08-31T16:17:06.921Z,32.49
2022-08-31T16:19:51.663Z,32.50
2022-08-31T16:22:36.556Z,32.92
2022-08-31T16:25:21.163Z,33.80
2022-08-31T16:28:05.947Z,34.16
2022-08-31T16:30:51.237Z,34.42
2022-08-31T16:33:36.508Z,34.36
2022-08-31T16:36:21.274Z,33.71
2022-08-31T16:39:06.019Z,34.07
2022-08-31T16:41:50.784Z,34.32
2022-08-31T16:44:36.481Z,34.55
2022-08-31T16:47:22.376Z,35.02
2022-08-31T16:50:07.242Z,35.04
2022-08-31T16:52:51.974Z,35.31
2022-08-31T16:55:36.858Z,35.30
2022-08-31T16:58:40.669Z,35.98
2022-08-31T17:01:26.500Z,36.03
2022-08-31T17:04:11.772Z,35.81
2022-08-31T17:06:56.476Z,35.76
2022-08-31T17:09:41.161Z,36.05
2022-08-31T17:12:25.825Z,36.79
2022-08-31T17:15:10.646Z,36.03
2022-08-31T17:17:55.356Z,36.93
2022-08-31T17:20:40.606Z,37.63
2022-08-31T17:23:25.290Z,37.50
2022-08-31T17:26:10.047Z,37.51
2022-08-31T17:28:54.731Z,38.04
2022-08-31T17:31:39.533Z,38.18
2022-08-31T17:34:24.332Z,38.82
2022-08-31T17:37:09.103Z,39.50
2022-08-31T17:39:53.868Z,38.95
2022-08-31T17:42:38.595Z,39.31
2022-08-31T17:45:23.391Z,39.08
2022-08-31T17:48:08.163Z,39.19
2022-08-31T17:50:52.917Z,40.00
2022-08-31T17:53:37.610Z,41.24
2022-08-31T17:56:25.030Z,41.54
2022-08-31T17:59:10.124Z,41.33
2022-08-31T18:01:54.775Z,41.29
2022-08-31T18:04:39.564Z,41.14
2022-08-31T18:07:24.889Z,41.31
2022-08-31T18:10:09.698Z,40.56
2022-08-31T18:12:54.284Z,40.48
2022-08-31T18:15:38.983Z,40.08
2022-08-31T18:18:23.822Z,40.02
2022-08-31T18:21:08.438Z,40.30
2022-08-31T18:23:53.411Z,39.59
2022-08-31T18:26:38.242Z,39.80
2022-08-31T18:29:24.992Z,40.82
2022-08-31T18:32:10.399Z,40.76
2022-08-31T18:34:57.137Z,41.29
2022-08-31T18:37:42.475Z,41.44
2022-08-31T18:40:27.241Z,41.45
2022-08-31T18:43:12.621Z,41.95
2022-08-31T18:45:57.217Z,41.84
2022-08-31T18:48:42.071Z,42.09
2022-08-31T18:51:26.702Z,42.46
2022-08-31T18:54:11.594Z,42.34
2022-08-31T18:56:56.294Z,42.95
2022-08-31T18:59:41.082Z,42.67
2022-08-31T19:02:26.019Z,42.23
2022-08-31T19:05:11.125Z,42.79
2022-08-31T19:07:55.890Z,42.67
2022-08-31T19:10:40.767Z,42.77
2022-08-31T19:13:25.750Z,43.01
2022-08-31T19:16:15.028Z,43.14
2022-08-31T19:19:00.187Z,43.47
2022-08-31T19:21:45.057Z,43.20
2022-08-31T19:24:29.768Z,43.45
2022-08-31T19:27:14.487Z,43.61
2022-08-31T19:29:59.145Z,43.60
2022-08-31T19:32:44.659Z,43.65
2022-08-31T19:35:29.434Z,45.09
2022-08-31T19:38:14.345Z,45.76
2022-08-31T19:40:59.345Z,46.15
2022-08-31T19:43:49.037Z,46.95
2022-08-31T19:46:39.841Z,46.18
2022-08-31T19:49:25.101Z,45.82
2022-08-31T19:52:09.848Z,45.30
2022-08-31T19:54:54.667Z,45.48
2022-08-31T19:57:39.504Z,45.57
2022-08-31T20:00:24.131Z,45.72
2022-08-31T20:03:08.987Z,46.52
2022-08-31T20:05:56.043Z,46.30
2022-08-31T20:08:40.882Z,46.96
2022-08-31T20:11:25.806Z,47.49
2022-08-31T20:14:10.448Z,47.38
2022-08-31T20:16:55.378Z,46.95
2022-08-31T20:19:39.983Z,47.02
2022-08-31T20:22:29.681Z,47.13
2022-08-31T20:25:19.101Z,47.23
2022-08-31T20:28:03.834Z,46.56
2022-08-31T20:30:48.633Z,46.58
2022-08-31T20:33:33.422Z,46.87
2022-08-31T20:36:18.073Z,46.76
2022-08-31T20:39:02.919Z,46.72
2022-08-31T20:41:47.590Z,47.03
2022-08-31T20:44:32.578Z,47.05
2022-08-31T20:47:17.208Z,46.89
2022-08-31T20:50:02.079Z,46.24
2022-08-31T20:52:46.606Z,46.15
2022-08-31T20:55:31.287Z,47.26
2022-08-31T20:58:15.913Z,47.11
2022-08-31T21:01:00.700Z,47.63
2022-08-31T21:03:45.519Z,47.53
2022-08-31T21:06:30.326Z,47.26
2022-08-31T21:09:15.224Z,47.45
2022-08-31T21:11:59.992Z,47.30
2022-08-31T21:14:44.906Z,47.51
2022-08-31T21:17:29.623Z,47.55
2022-08-31T21:20:14.457Z,47.36
2022-08-31T21:22:59.111Z,47.73
2022-08-31T21:25:44.003Z,48.71
2022-08-31T21:28:30.055Z,48.15
2022-08-31T21:31:18.238Z,49.03
2022-08-31T21:34:03.785Z,48.74
2022-08-31T21:36:48.566Z,48.53
2022-08-31T21:39:33.334Z,48.83
2022-08-31T21:42:18.115Z,48.98
2022-08-31T21:45:02.839Z,49.46
2022-08-31T21:47:47.542Z,49.30
2022-08-31T21:50:32.295Z,50.08
2022-08-31T21:53:17.073Z,50.13
2022-08-31T21:56:01.838Z,50.22
2022-08-31T21:58:46.690Z,50.38
2022-08-31T22:01:31.947Z,50.05
2022-08-31T22:04:16.779Z,50.35
2022-08-31T22:07:01.531Z,50.32
2022-08-31T22:09:46.325Z,50.51
2022-08-31T22:12:31.132Z,50.41
2022-08-31T22:15:15.851Z,51.09
2022-08-31T22:18:35.369Z,51.26
2022-08-31T22:21:05.449Z,51.41
2022-08-31T22:23:52.121Z,51.35
2022-08-31T22:26:38.540Z,51.54
2022-08-31T22:29:23.729Z,51.61
2022-08-31T22:32:08.561Z,51.34
2022-08-31T22:34:53.239Z,51.72
2022-08-31T22:37:38.071Z,51.33
2022-08-31T22:40:23.631Z,51.20
2022-08-31T22:43:08.729Z,51.60
2022-08-31T22:45:53.620Z,51.45
2022-08-31T22:48:38.818Z,51.50
2022-08-31T22:51:23.802Z,52.11
2022-08-31T22:54:08.480Z,52.28
2022-08-31T22:56:53.377Z,52.78
2022-08-31T22:59:38.218Z,52.00
2022-08-31T23:02:23.010Z,52.08
2022-08-31T23:05:07.828Z,51.85
2022-08-31T23:07:52.516Z,52.21
2022-08-31T23:10:37.471Z,52.92
2022-08-31T23:13:22.242Z,53.23
2022-08-31T23:16:07.239Z,53.18
2022-08-31T23:18:52.451Z,52.90
2022-08-31T23:21:37.208Z,52.70
2022-08-31T23:24:21.887Z,52.78
2022-08-31T23:27:06.793Z,52.92
2022-08-31T23:29:51.605Z,52.68
2022-08-31T23:32:36.437Z,52.21
2022-08-31T23:35:21.244Z,51.92
2022-08-31T23:38:05.908Z,52.19
2022-08-31T23:40:50.735Z,52.23
2022-08-31T23:43:37.788Z,52.38
2022-08-31T23:46:22.716Z,52.36
2022-08-31T23:49:07.505Z,52.90
2022-08-31T23:51:52.406Z,52.99
2022-08-31T23:54:37.257Z,52.74
2022-08-31T23:57:32.658Z,52.60
